UAL2213 KORD-KEGE
Flight info
| Callsign | UAL2213 |
|---|---|
| Flight time | N/A |
| Altitude | 36000 |
| Route | OLINN OREOS OBENE OGALE LNK WIZZR VAAIL1 |
| Aircraft | B739/M-SDE2E3FGHIRWXY/LB1 |
Departure
| Time | 2026-04-30 14:35 |
|---|---|
| Airport | Chicago O'Hare International Airport (KORD) |
Arrival
| Time | N/A |
|---|---|
| Airport | Eagle County Regional Airport (KEGE) |
| Time | Latitude | Longitude | Altitude | Speed | Heading |
|---|---|---|---|---|---|
| 2026-04-30 13:39 | 41.98084 | -87.90693 | 668 ft | 0 kts | 99° |
| 2026-04-30 14:26 | 41.98091 | -87.90750 | 668 ft | 4 kts | 84° |
| 2026-04-30 14:27 | 41.98081 | -87.90773 | 667 ft | 4 kts | 16° |
| 2026-04-30 14:27 | 41.98055 | -87.90779 | 668 ft | 3 kts | 9° |
| 2026-04-30 14:27 | 41.98033 | -87.90785 | 666 ft | 1 kts | 9° |
| 2026-04-30 14:30 | 41.98191 | -87.90790 | 668 ft | 9 kts | 354° |
| 2026-04-30 14:31 | 41.98288 | -87.90727 | 667 ft | 9 kts | 86° |
| 2026-04-30 14:31 | 41.98289 | -87.90524 | 667 ft | 14 kts | 89° |
| 2026-04-30 14:31 | 41.98289 | -87.90381 | 667 ft | 17 kts | 90° |
| 2026-04-30 14:32 | 41.98288 | -87.90070 | 668 ft | 16 kts | 90° |
| 2026-04-30 14:32 | 41.98288 | -87.89924 | 669 ft | 15 kts | 90° |
| 2026-04-30 14:32 | 41.98288 | -87.89783 | 669 ft | 15 kts | 90° |
| 2026-04-30 14:33 | 41.98289 | -87.89661 | 669 ft | 8 kts | 89° |
| 2026-04-30 14:33 | 41.98333 | -87.89629 | 670 ft | 5 kts | 322° |
| 2026-04-30 14:33 | 41.98360 | -87.89659 | 670 ft | 5 kts | 321° |
| 2026-04-30 14:34 | 41.98384 | -87.89691 | 670 ft | 5 kts | 299° |
| 2026-04-30 14:34 | 41.98388 | -87.89736 | 670 ft | 5 kts | 271° |
| 2026-04-30 14:34 | 41.98389 | -87.89782 | 670 ft | 5 kts | 270° |
| 2026-04-30 14:34 | 41.98389 | -87.89958 | 670 ft | 48 kts | 270° |
| 2026-04-30 14:35 | 41.98388 | -87.92035 | 671 ft | 165 kts | 270° |
| 2026-04-30 14:35 | 41.98371 | -87.93591 | 1153 ft | 168 kts | 266° |
| 2026-04-30 14:35 | 41.98262 | -87.95201 | 1730 ft | 175 kts | 264° |
| 2026-04-30 14:36 | 41.98118 | -87.96841 | 2413 ft | 177 kts | 264° |
| 2026-04-30 14:36 | 41.97968 | -87.98588 | 2782 ft | 201 kts | 264° |
| 2026-04-30 14:36 | 41.97806 | -88.00530 | 3029 ft | 223 kts | 265° |
| 2026-04-30 14:36 | 41.97634 | -88.02660 | 3459 ft | 237 kts | 265° |
| 2026-04-30 14:37 | 41.97450 | -88.04945 | 3938 ft | 252 kts | 265° |
| 2026-04-30 14:37 | 41.97265 | -88.07296 | 4802 ft | 252 kts | 266° |
| 2026-04-30 14:37 | 41.97079 | -88.09635 | 5712 ft | 251 kts | 267° |
| 2026-04-30 14:37 | 41.96893 | -88.11954 | 6598 ft | 249 kts | 267° |
| 2026-04-30 14:38 | 41.96709 | -88.14279 | 7296 ft | 251 kts | 268° |
| 2026-04-30 14:38 | 41.96523 | -88.16616 | 8057 ft | 251 kts | 268° |
| 2026-04-30 14:38 | 41.96338 | -88.18953 | 8805 ft | 252 kts | 268° |
| 2026-04-30 14:38 | 41.96153 | -88.21294 | 9561 ft | 252 kts | 269° |
| 2026-04-30 14:39 | 41.95967 | -88.23636 | 10261 ft | 254 kts | 269° |
| 2026-04-30 14:39 | 41.95776 | -88.26090 | 10463 ft | 274 kts | 269° |
| 2026-04-30 14:39 | 41.95571 | -88.28729 | 10625 ft | 293 kts | 268° |
| 2026-04-30 14:40 | 41.95114 | -88.34505 | 11039 ft | 325 kts | 268° |
| 2026-04-30 14:40 | 41.94868 | -88.37543 | 11547 ft | 329 kts | 268° |
| 2026-04-30 14:40 | 41.94618 | -88.40612 | 12145 ft | 331 kts | 268° |
| 2026-04-30 14:40 | 41.94365 | -88.43707 | 12733 ft | 334 kts | 268° |
| 2026-04-30 14:41 | 41.94111 | -88.46830 | 13285 ft | 337 kts | 268° |
| 2026-04-30 14:41 | 41.93857 | -88.49933 | 13874 ft | 339 kts | 267° |
| 2026-04-30 14:41 | 41.93599 | -88.53092 | 14486 ft | 341 kts | 267° |
| 2026-04-30 14:41 | 41.93337 | -88.56278 | 15078 ft | 344 kts | 267° |
| 2026-04-30 14:42 | 41.93074 | -88.59485 | 15643 ft | 347 kts | 267° |
| 2026-04-30 14:42 | 41.92807 | -88.62719 | 16201 ft | 350 kts | 267° |
| 2026-04-30 14:42 | 41.92537 | -88.65987 | 16742 ft | 354 kts | 267° |
| 2026-04-30 14:42 | 41.92264 | -88.69284 | 17297 ft | 357 kts | 267° |
| 2026-04-30 14:43 | 41.91987 | -88.72611 | 17839 ft | 360 kts | 267° |
| 2026-04-30 14:43 | 41.91707 | -88.75967 | 18363 ft | 363 kts | 267° |
| 2026-04-30 14:43 | 41.91423 | -88.79350 | 18850 ft | 366 kts | 267° |
| 2026-04-30 14:43 | 41.91192 | -88.82712 | 19380 ft | 365 kts | 269° |
| 2026-04-30 14:44 | 41.91065 | -88.86162 | 19917 ft | 366 kts | 271° |
| 2026-04-30 14:44 | 41.90976 | -88.89534 | 20425 ft | 367 kts | 271° |
| 2026-04-30 14:44 | 41.90890 | -88.92963 | 20932 ft | 369 kts | 271° |
| 2026-04-30 14:44 | 41.90796 | -88.96415 | 21436 ft | 370 kts | 270° |
| 2026-04-30 14:45 | 41.90694 | -88.99875 | 21933 ft | 372 kts | 270° |
| 2026-04-30 14:45 | 41.90585 | -89.03351 | 22428 ft | 374 kts | 270° |
| 2026-04-30 14:45 | 41.90472 | -89.06843 | 22913 ft | 375 kts | 270° |
| 2026-04-30 14:45 | 41.90356 | -89.10355 | 23375 ft | 377 kts | 270° |
| 2026-04-30 14:46 | 41.90238 | -89.13881 | 23815 ft | 379 kts | 270° |
| 2026-04-30 14:46 | 41.90119 | -89.17421 | 24205 ft | 380 kts | 270° |
| 2026-04-30 14:46 | 41.89988 | -89.20965 | 24602 ft | 382 kts | 269° |
| 2026-04-30 14:46 | 41.89813 | -89.23321 | 24858 ft | 384 kts | 266° |
| 2026-04-30 14:47 | 41.89360 | -89.28085 | 25338 ft | 386 kts | 266° |
| 2026-04-30 14:47 | 41.88999 | -89.31660 | 25724 ft | 387 kts | 266° |
| 2026-04-30 14:47 | 41.88638 | -89.35237 | 26107 ft | 388 kts | 266° |
| 2026-04-30 14:47 | 41.88278 | -89.38836 | 26485 ft | 389 kts | 266° |
| 2026-04-30 14:48 | 41.87922 | -89.42435 | 26854 ft | 390 kts | 266° |
| 2026-04-30 14:48 | 41.87566 | -89.46055 | 27204 ft | 392 kts | 266° |
| 2026-04-30 14:48 | 41.87210 | -89.49689 | 27549 ft | 393 kts | 266° |
| 2026-04-30 14:48 | 41.86853 | -89.53321 | 27996 ft | 391 kts | 266° |
| 2026-04-30 14:49 | 41.86497 | -89.56921 | 28576 ft | 387 kts | 266° |
| 2026-04-30 14:49 | 41.86149 | -89.60432 | 29163 ft | 383 kts | 266° |
| 2026-04-30 14:49 | 41.85800 | -89.63964 | 29697 ft | 380 kts | 266° |
| 2026-04-30 14:49 | 41.85451 | -89.67477 | 30159 ft | 379 kts | 266° |
| 2026-04-30 14:50 | 41.84750 | -89.74468 | 30799 ft | 379 kts | 266° |
| 2026-04-30 14:50 | 41.84392 | -89.77976 | 31032 ft | 381 kts | 266° |
| 2026-04-30 14:51 | 41.83667 | -89.85013 | 31630 ft | 381 kts | 266° |
| 2026-04-30 14:51 | 41.83304 | -89.88526 | 31891 ft | 382 kts | 265° |
| 2026-04-30 14:51 | 41.82570 | -89.95595 | 32413 ft | 383 kts | 265° |
| 2026-04-30 14:52 | 41.82202 | -89.99127 | 32700 ft | 383 kts | 265° |
| 2026-04-30 14:52 | 41.81462 | -90.06205 | 33203 ft | 383 kts | 265° |
| 2026-04-30 14:52 | 41.81090 | -90.09746 | 33447 ft | 384 kts | 265° |
| 2026-04-30 14:53 | 41.80346 | -90.16794 | 33918 ft | 385 kts | 265° |
| 2026-04-30 14:53 | 41.79969 | -90.20355 | 34110 ft | 386 kts | 265° |
| 2026-04-30 14:54 | 41.78445 | -90.34617 | 34101 ft | 383 kts | 265° |
| 2026-04-30 14:55 | 41.77305 | -90.45176 | 34069 ft | 380 kts | 265° |
| 2026-04-30 14:56 | 41.75789 | -90.59086 | 34086 ft | 378 kts | 264° |
| 2026-04-30 14:57 | 41.74636 | -90.69563 | 34086 ft | 380 kts | 264° |
| 2026-04-30 14:58 | 41.73072 | -90.83620 | 34089 ft | 383 kts | 264° |
| 2026-04-30 14:58 | 41.71880 | -90.94231 | 34100 ft | 385 kts | 264° |
| 2026-04-30 15:00 | 41.69863 | -91.11978 | 34102 ft | 387 kts | 264° |
| 2026-04-30 15:01 | 41.68227 | -91.26188 | 34106 ft | 386 kts | 264° |
| 2026-04-30 15:01 | 41.67132 | -91.35608 | 34110 ft | 384 kts | 264° |
| 2026-04-30 15:02 | 41.66173 | -91.43808 | 34110 ft | 383 kts | 264° |
| 2026-04-30 15:03 | 41.64241 | -91.60168 | 34113 ft | 381 kts | 264° |
| 2026-04-30 15:04 | 41.62152 | -91.77637 | 34113 ft | 380 kts | 264° |
| 2026-04-30 15:06 | 41.60036 | -91.95099 | 34102 ft | 381 kts | 264° |
| 2026-04-30 15:07 | 41.58321 | -92.09078 | 34099 ft | 381 kts | 264° |
| 2026-04-30 15:08 | 41.56593 | -92.23026 | 34103 ft | 382 kts | 264° |
| 2026-04-30 15:09 | 41.54401 | -92.40505 | 34100 ft | 381 kts | 264° |
| 2026-04-30 15:10 | 41.52634 | -92.54442 | 34091 ft | 380 kts | 264° |
| 2026-04-30 15:11 | 41.49964 | -92.75240 | 34100 ft | 379 kts | 264° |
| 2026-04-30 15:13 | 41.47710 | -92.92561 | 34099 ft | 379 kts | 263° |
| 2026-04-30 15:14 | 41.44523 | -93.16703 | 34085 ft | 378 kts | 263° |
| 2026-04-30 15:17 | 41.40359 | -93.47664 | 34099 ft | 376 kts | 263° |
| 2026-04-30 15:19 | 41.36696 | -93.75159 | 34087 ft | 379 kts | 263° |